Time;durP1;ratioP1;P1;durP2;ratioP2;P2;SDS_P1;SDS_P2;PMS_P1;PMS_P2;Temp;Humidity;BMP_temperature;BMP_pressure;BME280_temperature;BME280_humidity;BME280_pressure;Samples;Min_cycle;Max_cycle;Signal;HPM_P1;HPM_P2
2022/05/08 00:00:04;;;;;;;47.47;39.20;;;;;;;13.14;96.61;101722.72;4963042;28;20138;-77
2022/05/08 00:02:32;;;;;;;48.88;37.90;;;;;;;13.13;96.77;101728.97;4959117;29;20051;-78
2022/05/08 00:04:59;;;;;;;51.85;39.63;;;;;;;13.05;97.35;101726.22;4962612;28;20061;-78
2022/05/08 00:07:25;;;;;;;49.35;37.67;;;;;;;12.99;97.10;101724.19;4968006;29;20141;-78
2022/05/08 00:09:52;;;;;;;48.38;38.97;;;;;;;12.92;97.36;101729.19;4962915;29;20054;-78
2022/05/08 00:12:19;;;;;;;49.30;38.30;;;;;;;12.78;97.67;101721.75;4957548;29;20179;-78
2022/05/08 00:14:46;;;;;;;49.22;39.47;;;;;;;12.82;98.06;101728.38;4958685;29;20083;-78
2022/05/08 00:17:14;;;;;;;44.33;36.30;;;;;;;12.78;98.23;101725.22;4958342;29;20051;-78
2022/05/08 00:19:43;;;;;;;49.05;38.15;;;;;;;12.73;98.09;101729.28;4957937;29;20057;-78
2022/05/08 00:22:10;;;;;;;50.80;38.33;;;;;;;12.73;98.02;101724.03;4959518;28;20051;-79
2022/05/08 00:24:37;;;;;;;48.03;37.90;;;;;;;12.75;98.02;101722.91;4959920;28;20101;-77
2022/05/08 00:27:04;;;;;;;43.90;36.90;;;;;;;12.69;98.06;101733.97;4959819;28;20502;-77
2022/05/08 00:29:31;;;;;;;48.95;37.08;;;;;;;12.67;98.56;101735.09;4960090;29;20074;-79
2022/05/08 00:31:57;;;;;;;49.45;38.72;;;;;;;12.63;98.88;101729.28;4961931;29;20079;-79
2022/05/08 00:34:24;;;;;;;49.25;39.53;;;;;;;12.57;99.06;101729.88;4960940;29;20083;-78
2022/05/08 00:36:52;;;;;;;44.28;37.17;;;;;;;12.57;99.35;101737.75;4961209;28;20447;-79
2022/05/08 00:39:20;;;;;;;49.92;37.85;;;;;;;12.57;99.57;101735.94;4961154;28;20070;-79
2022/05/08 00:41:47;;;;;;;46.38;39.08;;;;;;;12.50;99.55;101729.59;4961228;29;20406;-79
2022/05/08 00:44:13;;;;;;;46.83;36.85;;;;;;;12.51;99.90;101730.44;4961855;29;20081;-78
2022/05/08 00:46:40;;;;;;;51.33;40.65;;;;;;;12.55;100.00;101737.06;4961358;29;20055;-78
2022/05/08 00:49:07;;;;;;;51.25;40.55;;;;;;;12.47;100.00;101739.56;4961322;28;20139;-78
2022/05/08 00:51:36;;;;;;;49.25;39.83;;;;;;;12.46;100.00;101743.97;4962113;28;20058;-79
2022/05/08 00:54:05;;;;;;;48.63;39.15;;;;;;;12.47;100.00;101736.94;4960819;28;20520;-78
2022/05/08 00:56:32;;;;;;;46.17;37.65;;;;;;;12.62;99.83;101738.16;4958797;29;20106;-78
2022/05/08 00:58:59;;;;;;;48.65;38.47;;;;;;;12.57;99.91;101733.31;4958951;29;20058;-79
2022/05/08 01:01:26;;;;;;;53.03;39.22;;;;;;;12.52;100.00;101726.84;4960243;29;20055;-78
2022/05/08 01:03:52;;;;;;;46.63;38.72;;;;;;;12.49;100.00;101727.94;4960908;29;20102;-79
2022/05/08 01:06:19;;;;;;;50.53;38.05;;;;;;;12.52;100.00;101734.72;4959327;29;20114;-78
2022/05/08 01:08:48;;;;;;;47.85;39.05;;;;;;;12.52;100.00;101737.34;4958811;28;20051;-79
2022/05/08 01:11:17;;;;;;;50.10;39.03;;;;;;;12.49;100.00;101732.38;4959202;29;20051;-79
2022/05/08 01:13:44;;;;;;;47.33;38.08;;;;;;;12.46;100.00;101724.78;4959642;28;20083;-78
2022/05/08 01:16:13;;;;;;;53.83;39.47;;;;;;;12.47;100.00;101729.06;4959164;28;20057;-79
2022/05/08 01:18:40;;;;;;;49.22;39.28;;;;;;;12.55;100.00;101737.06;4959048;29;20082;-78
2022/05/08 01:21:09;;;;;;;48.47;38.15;;;;;;;12.62;100.00;101725.00;4958921;28;20174;-78
2022/05/08 01:23:40;;;;;;;68.30;49.80;;;;;;;12.67;100.00;101733.28;4958538;28;20055;-78
2022/05/08 01:26:08;;;;;;;52.92;40.58;;;;;;;12.86;99.28;101735.00;4959440;28;20051;-78
2022/05/08 01:28:34;;;;;;;52.53;37.92;;;;;;;12.90;99.33;101742.47;4957757;28;20558;-78
2022/05/08 01:31:01;;;;;;;50.95;39.35;;;;;;;12.90;99.19;101737.22;4958840;28;20210;-77
2022/05/08 01:33:28;;;;;;;52.88;38.47;;;;;;;13.00;99.17;101741.59;4957954;29;20051;-77
2022/05/08 01:35:56;;;;;;;47.92;37.58;;;;;;;13.13;98.72;101739.47;4959658;28;20055;-77
2022/05/08 01:38:24;;;;;;;44.78;36.67;;;;;;;13.17;98.67;101733.81;4961330;28;20051;-77
2022/05/08 01:40:52;;;;;;;50.47;38.53;;;;;;;13.18;98.81;101737.28;4961942;28;20167;-77
2022/05/08 01:43:18;;;;;;;46.67;37.38;;;;;;;13.25;98.62;101743.56;4961620;28;20137;-77
2022/05/08 01:45:47;;;;;;;50.25;37.55;;;;;;;13.16;98.92;101742.69;4961806;28;20081;-77
2022/05/08 01:48:22;;;;;;;51.17;39.20;;;;;;;13.28;98.93;101748.53;4961310;28;20116;-77
2022/05/08 01:50:50;;;;;;;52.05;40.22;;;;;;;13.25;99.18;101746.19;4962498;28;20055;-77
2022/05/08 01:53:18;;;;;;;51.47;38.40;;;;;;;13.30;98.90;101749.22;4962745;28;20130;-77
2022/05/08 01:55:44;;;;;;;48.55;38.72;;;;;;;13.28;99.02;101745.91;4961644;28;20051;-79
2022/05/08 01:58:12;;;;;;;47.03;37.58;;;;;;;13.36;98.65;101747.81;4964597;29;20051;-79
2022/05/08 02:00:39;;;;;;;45.08;37.30;;;;;;;13.51;97.98;101747.16;4965348;29;20205;-79
2022/05/08 02:03:06;;;;;;;48.42;37.33;;;;;;;13.46;98.23;101749.41;4965460;28;20106;-79
2022/05/08 02:05:33;;;;;;;50.42;38.28;;;;;;;13.46;98.67;101751.22;4964689;28;20133;-79
2022/05/08 02:08:02;;;;;;;45.72;37.03;;;;;;;13.39;98.98;101743.09;4964137;29;20134;-78
2022/05/08 02:10:29;;;;;;;49.92;38.22;;;;;;;13.44;98.70;101745.28;4963984;28;20549;-78
2022/05/08 02:12:55;;;;;;;47.90;38.28;;;;;;;13.50;98.57;101756.03;4964700;28;20054;-78
2022/05/08 02:15:24;;;;;;;49.47;37.63;;;;;;;13.58;98.28;101756.13;4965983;29;20075;-78
2022/05/08 02:17:51;;;;;;;46.38;36.03;;;;;;;13.48;97.64;101757.97;4973718;29;20055;-78
2022/05/08 02:20:18;;;;;;;46.45;36.88;;;;;;;13.47;97.86;101756.31;4974656;29;20082;-78
2022/05/08 02:22:44;;;;;;;45.53;34.97;;;;;;;13.44;97.61;101754.00;4979403;29;20086;-78
2022/05/08 02:25:11;;;;;;;41.75;33.53;;;;;;;13.38;97.66;101756.38;4979215;28;20479;-79
2022/05/08 02:27:39;;;;;;;40.83;33.00;;;;;;;13.36;97.67;101753.06;4976592;28;20525;-78
2022/05/08 02:30:09;;;;;;;43.70;32.50;;;;;;;13.33;97.49;101751.56;4976505;28;20079;-79
2022/05/08 02:32:37;;;;;;;39.65;29.27;;;;;;;13.21;97.43;101756.22;4977889;28;20051;-78
2022/05/08 02:35:06;;;;;;;37.13;29.23;;;;;;;13.15;97.02;101761.19;4973065;29;20089;-79
2022/05/08 02:37:33;;;;;;;35.30;26.83;;;;;;;13.19;96.07;101752.91;4975202;28;20058;-78
2022/05/08 02:39:59;;;;;;;38.30;26.77;;;;;;;13.25;95.82;101757.53;4976637;28;20062;-78
2022/05/08 02:42:27;;;;;;;35.63;26.45;;;;;;;13.07;95.35;101758.44;4976859;29;20085;-78
2022/05/08 02:44:53;;;;;;;34.60;26.02;;;;;;;12.91;94.58;101759.88;4974710;28;20445;-78
2022/05/08 02:47:20;;;;;;;36.08;26.63;;;;;;;12.90;94.84;101752.97;4972683;28;20070;-79
2022/05/08 02:49:48;;;;;;;35.92;23.73;;;;;;;12.79;94.46;101750.50;4972160;29;20138;-79
2022/05/08 02:52:14;;;;;;;29.98;22.38;;;;;;;12.67;94.99;101758.72;4975935;29;20082;-77
2022/05/08 02:54:41;;;;;;;28.52;22.27;;;;;;;12.71;94.37;101757.47;4973770;29;20131;-78
2022/05/08 02:59:52;;;;;;;22.85;17.90;;;;;;;12.64;92.89;101762.47;4974310;29;20102;-78
2022/05/08 03:02:18;;;;;;;27.52;18.20;;;;;;;12.57;92.76;101762.19;4969763;28;20059;-79
2022/05/08 03:04:46;;;;;;;24.95;16.73;;;;;;;12.55;92.35;101763.31;4970909;28;20047;-77
2022/05/08 03:07:14;;;;;;;22.98;16.48;;;;;;;12.45;92.40;101757.25;4973029;29;20055;-78
2022/05/08 03:09:41;;;;;;;24.70;16.90;;;;;;;12.32;92.75;101767.19;4968821;29;20102;-78
2022/05/08 03:12:09;;;;;;;20.40;15.73;;;;;;;12.35;92.97;101759.03;4972064;29;20111;-78
2022/05/08 03:14:38;;;;;;;23.98;15.45;;;;;;;12.27;92.65;101765.84;4974548;28;20161;-78
2022/05/08 03:17:05;;;;;;;23.00;15.82;;;;;;;12.22;93.19;101778.56;4973071;29;20035;-78
2022/05/08 03:19:31;;;;;;;23.92;15.45;;;;;;;12.26;92.07;101774.69;4978610;28;20047;-77
2022/05/08 03:21:58;;;;;;;23.20;15.23;;;;;;;12.25;92.12;101773.03;4980427;28;20066;-77
2022/05/08 03:24:28;;;;;;;22.80;14.70;;;;;;;12.24;91.91;101771.38;4979893;29;20067;-78
2022/05/08 03:27:06;;;;;;;21.40;13.60;;;;;;;12.13;92.02;101778.53;4978287;28;20075;-76
2022/05/08 03:33:29;;;;;;;19.80;12.82;;;;;;;11.88;92.64;101769.41;4906604;29;20517;-79
2022/05/08 03:49:33;;;;;;;18.25;13.18;;;;;;;11.46;93.23;101766.13;4825723;29;20374;-82
2022/05/08 04:12:12;;;;;;;23.48;14.43;;;;;;;11.56;93.02;101801.91;4861022;23;20068;-80
2022/05/08 04:14:39;;;;;;;25.10;14.98;;;;;;;11.63;92.76;101803.03;4975983;28;20073;-78
2022/05/08 04:17:05;;;;;;;20.77;14.73;;;;;;;11.61;92.64;101801.50;4976355;28;20129;-78
2022/05/08 04:19:32;;;;;;;21.55;14.85;;;;;;;11.59;92.89;101798.19;4976520;28;20082;-78
2022/05/08 04:24:41;;;;;;;26.42;14.57;;;;;;;11.55;92.60;101802.84;4982483;28;20113;-77
2022/05/08 04:27:08;;;;;;;21.42;15.20;;;;;;;11.63;92.58;101803.03;4983398;28;20146;-77
2022/05/08 04:29:36;;;;;;;25.00;15.48;;;;;;;11.68;92.27;101801.78;4977183;28;20134;-78
2022/05/08 04:32:03;;;;;;;21.77;15.85;;;;;;;11.74;91.25;101798.63;4978164;28;20543;-78
2022/05/08 04:34:29;;;;;;;21.75;15.30;;;;;;;11.67;91.69;101808.00;4977453;28;20421;-78
2022/05/08 04:36:56;;;;;;;23.15;15.95;;;;;;;11.58;92.11;101799.97;4976129;28;20137;-79
2022/05/08 04:39:23;;;;;;;22.60;15.77;;;;;;;11.62;92.04;101811.03;4976934;28;20053;-78
2022/05/08 04:41:49;;;;;;;25.08;16.65;;;;;;;11.62;91.92;101813.66;4978476;28;20050;-78
2022/05/08 04:44:16;;;;;;;23.63;17.02;;;;;;;11.58;91.94;101810.47;4979648;28;20129;-78
2022/05/08 04:46:44;;;;;;;23.75;17.67;;;;;;;11.60;91.72;101818.19;4979035;28;20454;-79
2022/05/08 04:49:11;;;;;;;30.23;18.45;;;;;;;11.68;91.23;101822.78;4980078;28;20064;-79
2022/05/08 04:51:37;;;;;;;23.33;17.77;;;;;;;11.69;90.77;101822.63;4979962;28;20073;-78
2022/05/08 04:54:04;;;;;;;29.40;18.33;;;;;;;11.70;90.91;101826.09;4979359;28;20043;-79
2022/05/08 04:56:31;;;;;;;23.80;19.27;;;;;;;11.67;90.76;101823.72;4979976;28;20129;-79
2022/05/08 04:58:58;;;;;;;26.58;19.50;;;;;;;11.75;90.27;101822.09;4979242;28;20134;-79
2022/05/08 05:01:25;;;;;;;27.98;19.38;;;;;;;11.75;89.91;101831.75;4978506;28;20138;-79
2022/05/08 05:03:53;;;;;;;26.13;20.23;;;;;;;11.78;89.88;101834.97;4978877;28;20081;-78
2022/05/08 05:06:19;;;;;;;25.33;19.67;;;;;;;11.71;89.75;101830.38;4977927;28;20051;-78
2022/05/08 05:08:46;;;;;;;30.45;20.17;;;;;;;11.73;89.68;101831.91;4976720;28;20050;-79
2022/05/08 05:11:13;;;;;;;24.88;20.02;;;;;;;11.64;89.97;101841.38;4977557;28;20421;-79
2022/05/08 05:13:40;;;;;;;28.15;19.73;;;;;;;11.74;89.84;101851.09;4977545;28;20080;-78
2022/05/08 05:16:06;;;;;;;28.73;20.48;;;;;;;11.71;89.95;101840.84;4977440;28;20126;-79
2022/05/08 05:18:34;;;;;;;27.33;20.92;;;;;;;11.72;89.98;101847.75;4977422;28;20065;-78
2022/05/08 05:21:01;;;;;;;28.45;20.70;;;;;;;11.76;89.93;101849.16;4977392;28;20114;-78
2022/05/08 05:23:28;;;;;;;31.23;20.90;;;;;;;11.74;88.82;101845.84;4977565;28;20057;-79
2022/05/08 05:25:55;;;;;;;25.77;19.77;;;;;;;11.68;88.92;101856.84;4977544;28;20074;-79
2022/05/08 05:28:22;;;;;;;30.08;19.73;;;;;;;11.82;89.35;101859.94;4976350;28;20429;-78
2022/05/08 05:30:49;;;;;;;24.30;19.35;;;;;;;11.87;88.35;101857.75;4977298;28;20083;-79
2022/05/08 05:33:16;;;;;;;28.77;19.95;;;;;;;11.85;87.57;101859.69;4977367;28;20137;-78
2022/05/08 05:35:43;;;;;;;28.65;19.80;;;;;;;11.90;87.89;101864.53;4977549;28;20061;-78
2022/05/08 05:38:11;;;;;;;28.27;19.20;;;;;;;11.72;87.67;101861.69;4977335;28;20168;-79
2022/05/08 05:40:38;;;;;;;25.35;17.67;;;;;;;11.78;86.58;101874.31;4991449;28;20094;-78
2022/05/08 05:43:05;;;;;;;26.50;17.88;;;;;;;11.86;86.20;101860.50;4993032;28;20062;-79
2022/05/08 05:45:31;;;;;;;27.52;16.83;;;;;;;11.82;86.00;101869.59;4992700;28;20082;-78
2022/05/08 05:47:59;;;;;;;27.80;17.63;;;;;;;11.82;85.11;101880.94;4993339;28;20074;-77
2022/05/08 05:50:27;;;;;;;23.33;16.85;;;;;;;11.75;85.84;101879.78;4980275;28;20057;-79
2022/05/08 05:52:54;;;;;;;25.20;17.33;;;;;;;11.69;86.16;101885.56;4979533;28;20066;-78
2022/05/08 05:55:22;;;;;;;26.52;17.73;;;;;;;11.88;84.94;101885.63;4978673;28;20055;-78
2022/05/08 05:57:51;;;;;;;25.17;15.98;;;;;;;11.92;85.24;101891.44;4978889;28;20110;-78
2022/05/08 06:00:20;;;;;;;26.77;15.15;;;;;;;11.90;85.25;101888.13;4978955;28;20051;-79
2022/05/08 06:02:48;;;;;;;22.98;15.98;;;;;;;11.70;84.66;101875.91;4976347;28;20066;-78
2022/05/08 06:05:15;;;;;;;23.98;15.35;;;;;;;11.66;84.84;101885.00;4977212;28;20073;-78
2022/05/08 06:07:42;;;;;;;26.73;16.60;;;;;;;11.91;83.65;101890.63;4977387;28;20046;-79
2022/05/08 06:10:11;;;;;;;25.50;14.90;;;;;;;11.72;83.81;101890.53;4976127;28;20070;-78
2022/05/08 06:12:39;;;;;;;24.55;15.18;;;;;;;11.95;82.94;101891.19;4976902;28;20122;-78
2022/05/08 06:15:08;;;;;;;26.50;15.73;;;;;;;12.18;81.96;101897.03;4979387;28;20055;-78
2022/05/08 06:17:35;;;;;;;25.08;14.57;;;;;;;12.48;80.81;101896.09;4978097;28;20133;-78
2022/05/08 06:20:01;;;;;;;21.95;14.63;;;;;;;12.80;79.77;101898.44;4975433;28;20134;-77
2022/05/08 06:22:28;;;;;;;24.67;15.55;;;;;;;12.87;78.51;101900.38;4978487;28;20046;-77
2022/05/08 06:24:54;;;;;;;22.85;14.52;;;;;;;12.61;79.02;101891.41;4980582;28;20137;-78
2022/05/08 06:27:21;;;;;;;23.08;14.85;;;;;;;12.85;78.38;101902.28;4981328;28;20086;-77
2022/05/08 06:29:49;;;;;;;23.45;15.20;;;;;;;13.00;77.94;101899.25;4991431;28;20051;-78
2022/05/08 06:32:16;;;;;;;26.30;14.63;;;;;;;12.88;77.22;101891.50;4986378;28;20054;-79
2022/05/08 06:34:42;;;;;;;23.60;15.68;;;;;;;13.60;74.70;101893.56;4985722;28;20074;-77
2022/05/08 06:37:09;;;;;;;22.48;14.52;;;;;;;14.98;70.50;101901.22;4991949;28;20458;-78
2022/05/08 06:39:37;;;;;;;22.27;13.65;;;;;;;15.82;66.87;101904.00;4987247;28;20126;-77
2022/05/08 06:42:05;;;;;;;20.67;13.25;;;;;;;15.39;66.55;101900.47;4982118;28;20043;-78
2022/05/08 06:44:32;;;;;;;26.58;14.18;;;;;;;15.88;65.60;101904.19;4982131;28;20453;-77
2022/05/08 06:47:00;;;;;;;21.05;13.30;;;;;;;16.37;64.19;101909.59;4982886;28;20074;-77
2022/05/08 06:49:26;;;;;;;26.80;12.85;;;;;;;16.54;64.85;101913.88;4983673;28;20062;-79
2022/05/08 06:51:53;;;;;;;23.75;12.57;;;;;;;16.61;62.97;101914.06;4985774;28;20130;-78
2022/05/08 06:54:19;;;;;;;19.15;12.27;;;;;;;15.91;64.37;101911.81;4986406;28;20058;-79
2022/05/08 06:56:46;;;;;;;22.80;13.15;;;;;;;14.48;69.00;101914.97;4986079;28;20537;-79
2022/05/08 07:01:57;;;;;;;22.33;12.07;;;;;;;15.03;67.75;101920.88;4980683;28;20097;-79
2022/05/08 07:04:25;;;;;;;16.05;11.77;;;;;;;14.80;68.64;101915.22;4981260;28;20133;-79
2022/05/08 07:06:52;;;;;;;18.70;11.20;;;;;;;15.81;65.33;101924.28;4982636;28;20086;-78
2022/05/08 07:09:19;;;;;;;17.40;10.82;;;;;;;15.80;64.10;101919.16;4982449;28;20130;-78
2022/05/08 07:11:47;;;;;;;17.08;10.25;;;;;;;16.28;62.19;101929.06;4978270;28;20046;-79
2022/05/08 07:14:14;;;;;;;16.88;10.75;;;;;;;16.74;60.94;101929.47;4981707;28;20055;-79
2022/05/08 07:16:41;;;;;;;18.42;10.48;;;;;;;17.25;59.62;101930.94;4979519;28;20064;-77
2022/05/08 07:19:07;;;;;;;18.33;10.50;;;;;;;17.09;59.21;101933.59;4983208;28;20484;-78
2022/05/08 07:21:35;;;;;;;18.48;10.82;;;;;;;16.09;61.41;101924.88;4980997;28;20049;-78
2022/05/08 07:24:02;;;;;;;18.15;10.75;;;;;;;15.54;62.32;101935.84;4981199;28;20134;-79
2022/05/08 07:26:29;;;;;;;19.58;9.93;;;;;;;16.78;60.11;101936.91;4980737;28;20118;-79
2022/05/08 07:28:56;;;;;;;18.67;10.30;;;;;;;16.24;61.44;101927.72;4979049;28;20051;-78
2022/05/08 07:31:24;;;;;;;20.52;10.70;;;;;;;17.41;58.31;101930.91;4977259;28;20138;-78
2022/05/08 07:36:12;;;;;;;16.25;9.93;;;;;;;17.71;57.00;101936.44;4977562;28;20127;-78
2022/05/08 07:36:39;;;;;;;20.42;10.35;;;;;;;16.95;58.03;101944.84;4978041;28;20055;-79
2022/05/08 07:39:05;;;;;;;22.63;10.80;;;;;;;17.02;58.49;101948.47;4976775;28;20059;-77
2022/05/08 07:41:32;;;;;;;22.40;10.27;;;;;;;16.87;57.98;101940.38;4978086;28;20149;-79
2022/05/08 07:43:59;;;;;;;18.38;10.02;;;;;;;16.53;59.10;101943.16;4978506;28;20057;-78
2022/05/08 07:46:26;;;;;;;19.38;9.88;;;;;;;17.47;56.11;101943.47;4977647;28;20055;-78
2022/05/08 07:48:55;;;;;;;18.55;9.77;;;;;;;17.95;55.54;101936.38;4977782;28;20102;-78
2022/05/08 07:51:22;;;;;;;18.50;9.43;;;;;;;17.13;56.68;101948.13;4977733;28;20046;-76
2022/05/08 07:53:50;;;;;;;21.35;9.77;;;;;;;16.60;57.69;101949.41;4978983;28;20125;-79
2022/05/08 07:56:17;;;;;;;17.65;9.80;;;;;;;16.68;59.12;101957.38;4960607;28;20062;-79
2022/05/08 07:58:43;;;;;;;17.42;9.70;;;;;;;16.10;60.67;101947.66;4959473;28;20578;-78
2022/05/08 08:01:10;;;;;;;16.90;9.15;;;;;;;16.16;60.65;101941.72;4958840;28;20118;-78
2022/05/08 08:03:37;;;;;;;18.20;9.77;;;;;;;16.33;60.19;101957.63;4960130;28;20047;-79
2022/05/08 08:06:04;;;;;;;17.02;9.55;;;;;;;16.08;60.99;101954.06;4962133;28;20118;-78
2022/05/08 08:08:33;;;;;;;17.63;8.38;;;;;;;16.76;58.83;101965.31;4971772;28;20074;-79
2022/05/08 08:11:03;;;;;;;19.83;8.55;;;;;;;16.42;59.62;101954.84;4978544;28;20082;-78
2022/05/08 08:13:31;;;;;;;20.20;9.30;;;;;;;16.67;59.15;101961.00;4973844;28;20435;-79
2022/05/08 08:15:59;;;;;;;19.63;9.57;;;;;;;16.44;59.72;101965.25;4980058;28;20141;-79
2022/05/08 08:18:26;;;;;;;20.90;9.98;;;;;;;16.34;59.53;101965.41;4979657;28;20110;-79
2022/05/08 08:20:53;;;;;;;16.17;8.82;;;;;;;15.91;61.33;101963.75;4976355;28;20078;-77
2022/05/08 08:23:19;;;;;;;22.98;9.48;;;;;;;15.94;61.66;101966.09;4978094;28;20584;-77
2022/05/08 08:25:46;;;;;;;23.98;9.82;;;;;;;15.09;64.37;101964.25;4980996;28;20134;-78
2022/05/08 08:28:16;;;;;;;19.10;9.00;;;;;;;15.44;64.00;101969.44;4981040;28;20543;-78
2022/05/08 08:30:43;;;;;;;24.50;9.30;;;;;;;15.93;61.86;101973.19;4980950;28;20089;-78
2022/05/08 08:33:09;;;;;;;20.33;8.90;;;;;;;16.34;60.82;101967.22;4982849;28;20054;-79
2022/05/08 08:35:36;;;;;;;19.08;8.68;;;;;;;16.26;60.86;101976.75;4980221;28;20150;-78
2022/05/08 08:38:03;;;;;;;20.08;8.65;;;;;;;16.01;60.69;101971.56;4979283;28;20050;-78
2022/05/08 08:40:32;;;;;;;17.45;9.27;;;;;;;15.51;62.49;101969.63;4979941;28;20081;-78
2022/05/08 08:42:59;;;;;;;17.63;8.88;;;;;;;15.63;62.05;101976.31;4979847;28;20074;-79
2022/05/08 08:48:27;;;;;;;16.13;8.32;;;;;;;15.72;61.35;101985.09;4980568;28;20097;-81
2022/05/08 08:50:54;;;;;;;18.52;8.68;;;;;;;15.96;61.28;101976.50;4982629;28;20047;-80
2022/05/08 08:53:25;;;;;;;17.58;8.32;;;;;;;15.58;62.84;101979.44;4983778;28;20085;-80
2022/05/08 08:55:53;;;;;;;17.60;8.98;;;;;;;15.80;61.16;101982.50;4981233;28;20515;-79
2022/05/08 08:58:20;;;;;;;20.08;8.82;;;;;;;15.85;60.57;101975.78;4981196;28;20118;-79
2022/05/08 09:00:52;;;;;;;18.73;7.93;;;;;;;16.12;60.37;101976.53;4981615;28;20054;-79
2022/05/08 09:03:25;;;;;;;20.33;8.35;;;;;;;15.99;60.91;101987.56;4981967;28;20054;-79
2022/05/08 09:05:51;;;;;;;;;;;;;;;15.75;61.41;101990.91;4982401;28;20058;-80
2022/05/08 09:08:26;;;;;;;24.52;8.15;;;;;;;15.79;61.33;101983.50;4981803;28;19965;-78
2022/05/08 09:10:58;;;;;;;19.83;8.63;;;;;;;15.74;60.83;101988.41;4982263;28;20055;-79
2022/05/08 09:13:25;;;;;;;18.42;8.63;;;;;;;16.76;58.95;101991.75;4981701;28;20482;-81
2022/05/08 09:16:01;;;;;;;19.67;7.95;;;;;;;17.71;56.27;101982.28;4985921;28;20110;-79
2022/05/08 09:18:43;;;;;;;23.40;8.35;;;;;;;16.88;57.66;101995.75;4981957;28;20050;-82
2022/05/08 09:24:11;;;;;;;18.45;7.88;;;;;;;17.88;55.16;101977.78;4981916;28;20093;-79
2022/05/08 09:26:39;;;;;;;19.15;8.50;;;;;;;17.49;56.18;101986.44;4981360;28;20112;-81
2022/05/08 09:29:07;;;;;;;26.88;8.73;;;;;;;16.85;57.14;101988.13;4982669;28;20093;-80
2022/05/08 09:31:48;;;;;;;19.15;8.10;;;;;;;16.17;59.69;101988.28;4982166;28;20138;-79
2022/05/08 09:34:15;;;;;;;21.17;8.02;;;;;;;17.23;56.80;101993.75;4983297;28;20046;-81
2022/05/08 09:36:42;;;;;;;17.80;7.90;;;;;;;17.36;55.87;101988.78;4984636;28;20128;-80
2022/05/08 09:39:09;;;;;;;20.83;7.90;;;;;;;17.15;56.12;101991.09;4982323;28;20134;-78
2022/05/08 09:41:37;;;;;;;21.50;9.70;;;;;;;16.54;57.94;101992.38;4986850;28;20074;-79
2022/05/08 09:44:11;;;;;;;16.17;8.15;;;;;;;17.10;57.30;101990.78;4981876;28;20110;-80
2022/05/08 09:46:38;;;;;;;20.88;10.93;;;;;;;16.84;57.25;101988.31;4981490;28;20055;-80
2022/05/08 09:49:17;;;;;;;19.48;8.15;;;;;;;17.06;56.27;101985.00;4986814;28;20154;-79
2022/05/08 09:51:44;;;;;;;19.95;8.27;;;;;;;17.09;56.37;101983.84;4984092;28;20047;-81
2022/05/08 09:54:11;;;;;;;16.25;7.65;;;;;;;17.66;54.73;101989.06;4980815;28;20051;-79
2022/05/08 09:56:38;;;;;;;20.38;7.57;;;;;;;17.32;54.88;101981.34;4984400;28;20058;-80
2022/05/08 09:59:07;;;;;;;13.38;7.05;;;;;;;17.85;53.36;101968.34;4984646;28;20126;-80
2022/05/08 10:01:37;;;;;;;18.27;7.43;;;;;;;17.42;53.56;101982.81;4984318;28;20413;-80
2022/05/08 10:04:04;;;;;;;18.05;7.47;;;;;;;17.11;54.23;101981.84;4984892;28;20050;-79
2022/05/08 10:06:35;;;;;;;15.13;6.80;;;;;;;17.43;53.54;101968.59;4984236;28;20085;-80
2022/05/08 10:14:30;;;;;;;15.02;7.13;;;;;;;16.74;54.38;101977.06;5004475;23;20161;-82
2022/05/08 10:17:03;;;;;;;14.65;6.78;;;;;;;17.05;54.42;101966.63;4982149;28;20061;-80
2022/05/08 10:19:46;;;;;;;14.50;6.78;;;;;;;17.27;53.27;101968.63;4981435;28;20051;-82
2022/05/08 10:22:14;;;;;;;22.00;7.03;;;;;;;17.13;53.14;101959.53;4983332;28;20047;-80
2022/05/08 10:24:51;;;;;;;15.50;5.88;;;;;;;17.66;53.26;101973.19;4982785;28;20082;-81
2022/05/08 10:27:21;;;;;;;16.13;6.93;;;;;;;17.66;51.55;101962.59;4982894;28;20064;-82
2022/05/08 10:30:27;;;;;;;11.20;6.28;;;;;;;17.28;52.30;101964.16;4982095;28;20057;-80
2022/05/08 10:32:54;;;;;;;13.18;6.15;;;;;;;16.51;52.41;101956.53;4982794;28;20131;-81
2022/05/08 10:35:22;;;;;;;12.32;5.85;;;;;;;16.86;52.93;101952.78;4984007;28;20055;-83
2022/05/08 10:37:51;;;;;;;15.65;5.63;;;;;;;17.40;51.86;101949.59;4981767;28;20153;-81
2022/05/08 10:40:38;;;;;;;14.45;6.43;;;;;;;17.18;51.81;101957.22;4983070;28;20126;-81
2022/05/08 10:43:28;;;;;;;13.05;5.75;;;;;;;17.95;49.78;101944.31;4981864;28;20054;-79
2022/05/08 10:45:56;;;;;;;19.00;5.55;;;;;;;17.33;50.38;101956.53;4982518;28;20051;-81
2022/05/08 10:48:25;;;;;;;11.27;4.82;;;;;;;17.69;49.43;101947.22;4981037;28;20054;-81
2022/05/08 10:50:54;;;;;;;12.07;5.05;;;;;;;16.99;49.43;101944.34;4982818;28;20065;-81
2022/05/08 10:53:26;;;;;;;15.50;5.18;;;;;;;17.55;49.19;101940.75;4984233;28;20109;-79
2022/05/08 10:55:59;;;;;;;13.32;4.78;;;;;;;17.59;48.94;101934.13;4984029;28;20153;-80
2022/05/08 10:58:26;;;;;;;13.55;5.25;;;;;;;17.46;48.97;101941.81;4987286;28;20066;-81
2022/05/08 11:00:56;;;;;;;10.60;5.10;;;;;;;17.87;48.55;101923.16;4982387;28;20062;-81
2022/05/08 11:03:23;;;;;;;12.60;4.70;;;;;;;18.39;47.48;101951.69;4982272;28;20054;-81
2022/05/08 11:05:52;;;;;;;12.20;4.70;;;;;;;17.85;47.62;101941.88;4982381;28;20066;-81
2022/05/08 11:08:25;;;;;;;15.70;5.20;;;;;;;17.54;47.39;101928.53;4980627;28;20055;-79
2022/05/08 11:11:02;;;;;;;15.77;5.05;;;;;;;17.52;48.27;101940.28;4983704;28;20055;-82
2022/05/08 11:13:39;;;;;;;12.05;5.82;;;;;;;18.08;46.95;101935.78;4983453;28;20046;-81
2022/05/08 11:16:06;;;;;;;10.52;4.20;;;;;;;18.18;46.67;101929.28;4981074;28;20086;-82
2022/05/08 11:18:33;;;;;;;13.15;4.60;;;;;;;17.92;45.76;101920.00;4981619;28;20143;-81
2022/05/08 11:21:00;;;;;;;12.63;4.93;;;;;;;17.74;46.11;101929.00;4982581;28;20074;-82
2022/05/08 11:23:30;;;;;;;10.95;4.50;;;;;;;17.54;46.62;101917.94;4981753;28;20047;-82
2022/05/08 11:25:59;;;;;;;10.48;4.50;;;;;;;18.46;45.52;101920.81;4987880;28;20075;-81
2022/05/08 11:28:27;;;;;;;9.68;3.85;;;;;;;18.09;44.18;101917.06;4987494;28;20133;-82
2022/05/08 11:30:55;;;;;;;9.45;4.32;;;;;;;17.79;45.64;101925.84;4984083;28;20089;-81
2022/05/08 11:36:25;;;;;;;8.43;3.75;;;;;;;18.48;44.03;101919.63;4981313;28;20149;-80
2022/05/08 11:38:56;;;;;;;9.18;3.97;;;;;;;18.57;43.29;101921.22;4980927;28;20489;-80
2022/05/08 11:41:24;;;;;;;8.30;4.28;;;;;;;18.10;44.64;101916.06;4981193;28;20090;-82
2022/05/08 11:43:53;;;;;;;8.32;4.07;;;;;;;18.13;43.64;101913.06;4981370;28;20449;-84
2022/05/08 11:46:22;;;;;;;11.18;3.95;;;;;;;17.95;43.26;101917.84;4980249;28;20110;-82
2022/05/08 11:48:50;;;;;;;10.63;4.30;;;;;;;18.36;43.23;101907.00;4981203;28;20129;-77
2022/05/08 11:51:18;;;;;;;9.65;4.32;;;;;;;18.35;42.71;101905.34;4981459;28;20150;-81
2022/05/08 11:53:46;;;;;;;10.30;4.63;;;;;;;18.60;42.33;101909.47;4980187;28;20098;-82
2022/05/08 11:56:29;;;;;;;9.05;4.15;;;;;;;18.72;41.42;101910.72;4981009;28;20050;-82
2022/05/08 11:58:56;;;;;;;8.52;4.70;;;;;;;18.60;42.38;101909.47;4980311;28;20129;-81
2022/05/08 12:01:28;;;;;;;10.77;4.57;;;;;;;18.70;42.62;101907.41;4980173;28;20695;-80
2022/05/08 12:03:56;;;;;;;13.75;4.30;;;;;;;18.73;43.24;101887.69;4980755;28;20069;-79
2022/05/08 12:06:23;;;;;;;11.55;4.47;;;;;;;19.12;42.96;101903.38;4981290;28;20057;-82
2022/05/08 12:08:50;;;;;;;10.88;4.60;;;;;;;18.63;42.34;101906.47;4979941;28;20489;-82
2022/05/08 12:11:34;;;;;;;7.13;4.18;;;;;;;19.20;40.92;101890.84;4980497;28;20059;-83
2022/05/08 12:14:03;;;;;;;11.40;4.38;;;;;;;18.81;41.38;101895.56;4980155;28;20101;-81
2022/05/08 12:16:31;;;;;;;9.48;4.20;;;;;;;18.53;41.27;101900.56;4980678;28;20130;-80